KTAD/TAD METAR and TAF weather

Enter ICAO airport designator
Station Type Date Time Source
KTAD METAR 2019/10/14 05:54 UTC NOAA

KTAD 140554Z AUTO 26008KT 10SM CLR 07/M14 A3001 RMK AO2 SLP111 T00671139 10200 20044 50003


Station Type Date Time Source
KTAD Decoded METAR 2019/10/14 05:54 UTC NOAA

Trinidad, Perry Stokes Airport, CO, United States (KTAD) 37-16N 104-26W
Oct 14, 2019 - 01:54 AM EDT / 2019.10.14 0554 UTC
Wind: from the W (260 degrees) at 9 MPH (8 KT):0
Visibility: 10 mile(s):0
Sky conditions: clear
Temperature: 44.1 F (6.7 C)
Dew Point: 7.0 F (-13.9 C)
Relative Humidity: 21%
Pressure (altimeter): 30.01 in. Hg (1016 hPa)
Pressure tendency: 0.01 inches (0.3 hPa) higher than three hours ago
ob: KTAD 140554Z AUTO 26008KT 10SM CLR 07/M14 A3001 RMK AO2 SLP111 T00671139 10200 20044 50003
cycle: 6

Station Type Date Time Source
KTAD TAF UTC NOAA

Error!

Example: see airport list